Mount Buller, Australia
Current Conditions -  °F | °C
As of 9:00 PM on Friday 21 Nov 2014 (Local Time) from YMAY Reporting Station
Clear Clear  
Wind Chill: 73°   Ceiling: Unl
Heat Index: 73°   Visibility: 6mi
Dew Point: 41°   Wind: 8mph
Humidity: 31%   Direction: 290°WNW
Pressure: 29.83"   Gusts: NA
Location:  37.15°S, 146.45°E
Report Text: YMAY 211000Z AUTO 29007KT 9999 // NCD 23/05 Q1010
Loading
Personal Weather Stations






























Interactive Weather Map New forecast layout! Learn more

10-Day Weather Forecast

Advertisements
Track Severe Weather on mobile